Latest Weather Observations for Hervey Bay

IDQ60801

Issued at 9:02 am EST Saturday 20 December 2014 (issued every 30 minutes, with the page automatically refreshed every 10 minutes)

About weather observations | Map of weather stations | Latest weather observations for QLD | Other Formats
Station Details ID: 040405 Name: HERVEY BAY AIRPORT Lat: -25.32 Lon: 152.88 Height: 12.98 m
Data from the previous 72 hours. | See also: Recent months at Hervey Bay
Date/Time
EST
Temp
°C
App
Temp
°C
Dew
Point
Rel
Hum
%
Delta-T
°C
Wind Press
QNH
hPa
Press
MSL
hPa
Rain
since 9 am
mm
Dir
 
Spd
km/h
Gust
km/h
Spd
kts
Gust
kts
20/09:00am 28.4 28.6 20.1 60 5.4 SE 19 28 10 15 1014.9 1014.8 0.0
20/08:30am 27.9 28.5 20.2 63 5.0 SE 17 24 9 13 1014.8 1014.7 0.0
20/08:00am 27.2 27.7 20.0 64 4.7 SE 17 22 9 12 1014.8 1014.7 0.0
20/07:30am 26.5 27.0 20.1 68 4.2 SE 17 26 9 14 1014.6 1014.5 0.0
20/07:00am 25.7 27.2 20.5 73 3.4 SE 13 20 7 11 1014.2 1014.1 0.0
20/06:30am 23.9 26.8 21.8 88 1.4 SSE 9 15 5 8 1013.9 1013.8 0.0
20/06:09am 22.7 25.5 21.5 93 0.8 SSW 9 11 5 6 1013.6 1013.5 0.0
20/06:00am 22.2 24.8 21.2 94 0.7 SSW 9 11 5 6 1013.4 1013.3 0.0
20/05:32am 21.8 24.3 21.1 96 0.5 SW 9 13 5 7 1013.1 1013.0 0.0
20/05:30am 21.7 24.2 21.0 96 0.5 SW 9 13 5 7 1013.1 1013.0 0.0
20/05:00am 19.8 21.7 19.0 95 0.5 SSW 7 7 4 4 1012.6 1012.5 0.0
20/04:30am 19.6 21.5 18.6 94 0.6 SSE 6 7 3 4 1012.3 1012.2 0.0
20/04:00am 20.3 23.8 19.5 95 0.5 CALM 0 0 0 0 1012.1 1012.0 0.0
20/03:30am 19.8 21.7 19.0 95 0.5 SSW 7 9 4 5 1012.1 1012.0 0.0
20/03:00am 19.6 22.7 18.6 94 0.6 CALM 0 0 0 0 1012.0 1011.9 0.0
20/02:30am 19.2 21.0 18.2 94 0.6 SSW 6 9 3 5 1011.8 1011.7 0.0
20/02:00am 19.5 22.5 18.5 94 0.6 CALM 0 0 0 0 1011.7 1011.6 0.0
20/01:30am 19.8 23.0 18.8 94 0.6 CALM 0 0 0 0 1011.7 1011.6 0.0
20/01:00am 19.8 22.9 18.6 93 0.7 CALM 0 0 0 0 1011.6 1011.5 0.0
20/12:30am 20.1 23.3 18.9 93 0.8 CALM 0 0 0 0 1011.7 1011.6 0.0
20/12:00am 20.1 23.3 18.8 92 0.8 CALM 0 0 0 0 1011.8 1011.7 0.0
 
Date/Time
EST
Temp
°C
App
Temp
°C
Dew
Point
Rel
Hum
%
Delta-T
°C
Wind Press
QNH
hPa
Press
MSL
hPa
Rain
since 9 am
mm
Dir
 
Spd
km/h
Gust
km/h
Spd
kts
Gust
kts
19/11:30pm 20.4 23.7 19.2 93 0.8 CALM 0 0 0 0 1012.0 1011.9 0.0
19/11:00pm 20.9 24.5 19.7 93 0.8 CALM 0 0 0 0 1012.4 1012.3 0.0
19/10:30pm 20.9 24.3 19.4 91 1.0 CALM 0 0 0 0 1012.6 1012.5 0.0
19/10:00pm 21.6 25.3 19.9 90 1.1 CALM 0 0 0 0 1012.7 1012.6 0.0
19/09:30pm 22.1 26.0 20.4 90 1.1 CALM 0 0 0 0 1012.6 1012.5 0.0
19/08:30pm 23.9 27.0 21.0 84 1.9 N 6 7 3 4 1012.3 1012.2 0.0
19/08:00pm 24.3 27.2 21.0 82 2.2 N 7 9 4 5 1012.1 1012.0 0.0
19/07:30pm 24.5 27.2 20.6 79 2.5 N 7 11 4 6 1011.9 1011.8 0.0
19/07:00pm 24.8 27.0 20.5 77 2.8 N 9 13 5 7 1011.4 1011.3 0.0
19/06:30pm 25.5 27.4 20.5 74 3.3 NNW 11 15 6 8 1011.1 1011.0 0.0
19/06:00pm 26.4 28.3 20.5 70 3.9 N 11 13 6 7 1010.9 1010.8 0.0
19/05:30pm 27.0 28.4 20.3 66 4.4 N 13 15 7 8 1010.5 1010.4 0.0
19/05:00pm 27.7 29.5 20.3 64 4.9 N 11 15 6 8 1010.3 1010.2 0.0
19/04:30pm 28.0 29.6 20.0 61 5.2 NNE 11 15 6 8 1010.1 1010.0 0.0
19/04:00pm 27.8 29.0 19.8 61 5.2 NNE 13 17 7 9 1009.8 1009.7 0.0
19/03:30pm 28.3 29.9 20.8 63 5.0 NE 13 17 7 9 1010.0 1009.9 0.0
19/03:00pm 27.8 29.3 19.8 61 5.2 ENE 11 17 6 9 1010.3 1010.2 0.0
19/02:30pm 27.5 29.7 20.3 65 4.7 NE 9 15 5 8 1010.5 1010.4 0.0
19/02:00pm 27.1 28.8 20.2 66 4.5 ENE 11 17 6 9 1010.6 1010.5 0.0
19/01:30pm 27.9 29.8 20.5 64 4.9 SE 11 20 6 11 1011.1 1011.0 0.0
19/01:00pm 27.6 30.4 19.7 62 5.1 NW 4 9 2 5 1011.5 1011.4 0.0
19/12:30pm 26.4 29.0 20.5 70 3.9 WNW 7 15 4 8 1011.9 1011.8 0.0
19/12:00pm 25.3 27.4 20.1 73 3.4 W 9 15 5 8 1012.2 1012.1 0.0
19/11:30am 24.6 26.7 20.1 76 2.9 W 9 15 5 8 1012.5 1012.4 0.0
19/11:00am 24.2 26.4 20.5 80 2.4 SW 9 11 5 6 1012.6 1012.5 0.0
19/10:30am 23.0 25.8 20.9 88 1.4 SW 7 13 4 7 1012.8 1012.7 0.0
19/10:00am 22.4 25.0 20.5 89 1.2 SW 7 9 4 5 1012.8 1012.7 0.0
19/09:30am 22.3 24.2 19.8 86 1.6 SW 9 11 5 6 1013.2 1013.1 0.0
19/09:00am 22.4 24.3 19.8 85 1.7 SW 9 11 5 6 1013.2 1013.1 3.2
19/08:30am 22.3 24.4 20.2 88 1.4 SSW 9 15 5 8 1013.2 1013.1 3.2
19/08:00am 21.7 23.4 20.2 91 1.0 SSW 11 17 6 9 1013.1 1013.0 3.2
19/07:30am 21.4 24.0 20.0 92 0.9 S 6 9 3 5 1012.7 1012.6 3.2
19/07:00am 21.1 23.0 19.7 92 0.9 SSE 9 13 5 7 1012.3 1012.2 3.0
19/06:30am 21.0 23.2 19.6 92 0.9 S 7 13 4 7 1012.6 1012.5 2.8
19/06:00am 20.8 22.2 19.5 92 0.8 SSW 11 15 6 8 1012.5 1012.4 2.8
19/05:30am 20.9 21.9 19.4 91 1.0 S 13 19 7 10 1012.5 1012.4 2.8
19/05:22am 21.0 21.9 19.3 90 1.1 S 13 19 7 10 1012.5 1012.4 2.8
19/05:00am 21.5 22.8 20.1 92 0.9 S 13 20 7 11 1012.3 1012.2 2.8
19/04:30am 21.9 23.1 20.7 93 0.8 SW 15 22 8 12 1011.8 1011.7 2.8
19/04:11am 22.4 24.7 21.4 94 0.7 SSW 11 17 6 9 1011.8 1011.7 2.8
19/04:09am 22.3 24.6 21.3 94 0.7 SSW 11 17 6 9 1011.8 1011.7 2.8
19/04:00am 22.4 25.1 21.4 94 0.7 SSW 9 17 5 9 1011.8 1011.7 2.8
19/03:52am 22.6 25.5 21.8 95 0.5 SSW 9 13 5 7 1011.8 1011.7 2.6
19/03:30am 22.5 25.6 21.5 94 0.7 SSW 7 11 4 6 1011.8 1011.7 2.6
19/03:00am 22.4 25.1 21.4 94 0.7 SSW 9 13 5 7 1011.6 1011.5 2.4
19/02:30am 22.6 25.8 21.6 94 0.7 SSW 7 9 4 5 1011.8 1011.7 2.2
19/02:00am 22.3 24.5 21.1 93 0.8 SW 11 13 6 7 1012.1 1012.0 2.0
19/01:30am 22.7 25.4 21.3 92 0.9 WSW 9 11 5 6 1012.4 1012.3 1.8
19/01:00am 22.8 25.5 21.3 91 1.0 WSW 9 13 5 7 1012.4 1012.3 1.8
19/12:30am 23.0 25.5 21.1 89 1.2 WSW 9 13 5 7 1012.3 1012.2 1.6
19/12:00am 23.4 26.7 21.8 91 1.1 WNW 7 9 4 5 1012.1 1012.0 1.6
 
Date/Time
EST
Temp
°C
App
Temp
°C
Dew
Point
Rel
Hum
%
Delta-T
°C
Wind Press
QNH
hPa
Press
MSL
hPa
Rain
since 9 am
mm
Dir
 
Spd
km/h
Gust
km/h
Spd
kts
Gust
kts
18/11:30pm 23.3 25.8 21.7 91 1.1 S 11 15 6 8 1012.1 1012.0 1.6
18/11:00pm 23.9 26.7 22.3 91 1.1 WSW 11 15 6 8 1012.7 1012.6 1.6
18/10:30pm 24.3 27.6 22.6 90 1.1 W 9 11 5 6 1012.5 1012.4 1.0
18/10:00pm 24.7 26.5 21.8 84 1.9 NW 15 22 8 12 1012.6 1012.5 0.2
18/09:30pm 26.5 29.1 22.6 79 2.6 NW 13 19 7 10 1012.5 1012.4 0.0
18/09:00pm 26.5 28.3 22.6 79 2.6 NNW 17 24 9 13 1012.4 1012.3 0.0
18/08:30pm 26.5 28.7 22.6 79 2.6 WNW 15 22 8 12 1012.3 1012.2 0.0
18/08:19pm 26.6 28.5 22.7 79 2.6 W 17 32 9 17 1012.4 1012.3 0.0
18/08:00pm 26.4 27.6 22.5 79 2.6 N 20 30 11 16 1010.4 1010.3 0.0
18/07:30pm 26.4 27.6 22.5 79 2.6 N 20 33 11 18 1010.2 1010.1 0.0
18/07:00pm 26.5 26.4 22.3 78 2.8 N 26 41 14 22 1009.9 1009.8 0.0
18/06:30pm 26.4 26.9 22.7 80 2.5 N 24 35 13 19 1009.7 1009.6 0.0
18/06:00pm 26.6 27.1 22.7 79 2.6 N 24 32 13 17 1009.6 1009.5 0.0
18/05:30pm 26.8 27.3 22.6 78 2.8 N 24 39 13 21 1009.6 1009.5 0.0
18/05:00pm 27.2 27.4 22.8 77 3.0 N 26 35 14 19 1009.2 1009.1 0.0
18/04:30pm 27.4 27.0 22.3 73 3.4 N 28 39 15 21 1008.7 1008.6 0.0
18/04:00pm 28.2 27.6 22.7 72 3.7 N 30 44 16 24 1008.3 1008.2 0.0
18/03:30pm 28.5 27.9 22.7 71 3.9 N 30 43 16 23 1008.1 1008.0 0.0
18/03:00pm 28.4 27.4 22.6 71 3.9 N 32 43 17 23 1008.1 1008.0 0.0
18/02:32pm 28.7 28.3 22.4 68 4.3 N 28 46 15 25 1008.8 1008.7 0.0
18/02:30pm 29.3 29.3 23.0 69 4.3 N 28 37 15 20 1008.8 1008.7 0.0
18/02:00pm 29.3 28.7 23.3 70 4.1 N 32 46 17 25 1009.2 1009.1 0.0
18/01:30pm 29.3 28.9 22.3 66 4.7 N 28 43 15 23 1009.9 1009.8 0.0
18/01:00pm 29.5 29.1 23.0 68 4.5 N 30 43 16 23 1010.3 1010.2 0.0
18/12:30pm 29.1 28.6 22.1 66 4.7 N 28 44 15 24 1010.5 1010.4 0.0
18/12:00pm 28.8 28.1 22.5 68 4.3 N 30 41 16 22 1010.9 1010.8 0.0
18/11:30am 29.4 29.5 22.6 67 4.6 N 26 39 14 21 1011.2 1011.1 0.0
18/11:00am 28.9 28.5 23.1 71 4.0 N 30 41 16 22 1011.5 1011.4 0.0
18/10:30am 28.6 28.0 22.6 70 4.1 N 30 43 16 23 1011.9 1011.8 0.0
18/10:00am 28.9 29.7 23.1 71 4.0 N 24 35 13 19 1012.3 1012.2 0.0
18/09:30am 28.5 29.2 23.0 72 3.8 N 24 35 13 19 1012.2 1012.1 0.0
18/09:00am 28.8 29.9 23.7 74 3.5 N 24 35 13 19 1012.2 1012.1 0.4
18/08:30am 28.5 29.9 23.6 75 3.4 N 22 30 12 16 1012.2 1012.1 0.4
18/08:00am 27.6 29.3 23.4 78 2.9 N 20 28 11 15 1012.1 1012.0 0.4
18/07:55am 27.5 29.3 23.5 79 2.7 N 20 28 11 15 1012.1 1012.0 0.4
18/07:30am 27.9 30.1 23.9 79 2.8 N 19 32 10 17 1011.9 1011.8 0.4
18/07:22am 27.8 29.7 23.8 79 2.8 N 20 28 11 15 1011.9 1011.8 0.4
18/07:18am 27.4 29.1 23.4 79 2.7 N 20 28 11 15 1011.9 1011.8 0.4
18/07:07am 27.6 29.6 23.6 79 2.7 N 19 28 10 15 1012.2 1012.1 0.4
18/07:00am 27.5 29.3 23.3 78 2.9 N 19 26 10 14 1012.0 1011.9 0.4
18/06:30am 27.3 29.6 23.5 80 2.6 N 17 30 9 16 1011.8 1011.7 0.4
18/06:24am 27.2 29.6 23.7 81 2.4 NNW 17 26 9 14 1011.7 1011.6 0.4
18/06:03am 26.7 29.1 23.6 83 2.1 N 17 24 9 13 1011.5 1011.4 0.4
18/06:00am 26.8 29.2 23.7 83 2.1 NNW 17 24 9 13 1011.4 1011.3 0.4
18/05:30am 26.5 29.3 23.6 84 2.0 NNW 15 24 8 13 1010.9 1010.8 0.4
18/05:00am 26.3 28.3 23.6 85 1.8 N 19 28 10 15 1010.0 1009.9 0.4
18/04:38am 26.2 28.9 23.5 85 1.8 N 15 22 8 12 1009.5 1009.4 0.4
18/04:30am 26.3 28.3 23.6 85 1.8 N 19 26 10 14 1009.4 1009.3 0.4
18/04:27am 26.2 28.5 23.5 85 1.8 N 17 24 9 13 1009.3 1009.2 0.4
18/04:22am 26.2 28.5 23.5 85 1.8 N 17 24 9 13 1009.2 1009.1 0.4
18/04:09am 26.3 29.4 23.6 85 1.8 N 13 20 7 11 1009.1 1009.0 0.4
18/04:00am 26.3 28.6 23.4 84 2.0 N 17 26 9 14 1009.1 1009.0 0.4
18/03:30am 26.3 28.5 23.2 83 2.1 N 17 26 9 14 1008.7 1008.6 0.4
18/03:00am 26.3 28.5 23.2 83 2.1 N 17 24 9 13 1008.6 1008.5 0.4
18/02:30am 26.2 28.6 22.9 82 2.2 N 15 22 8 12 1008.2 1008.1 0.4
18/02:00am 26.2 28.2 22.9 82 2.2 N 17 24 9 13 1008.1 1008.0 0.4
18/01:30am 26.3 27.6 22.6 80 2.5 N 20 30 11 16 1008.1 1008.0 0.4
18/01:00am 26.2 27.2 22.1 78 2.8 NNW 20 32 11 17 1008.0 1007.9 0.4
18/12:30am 26.0 26.3 20.8 73 3.4 NNW 20 32 11 17 1008.6 1008.5 0.4
18/12:00am 26.1 24.6 18.5 63 4.8 N 24 35 13 19 1008.6 1008.5 0.4
 
Date/Time
EST
Temp
°C
App
Temp
°C
Dew
Point
Rel
Hum
%
Delta-T
°C
Wind Press
QNH
hPa
Press
MSL
hPa
Rain
since 9 am
mm
Dir
 
Spd
km/h
Gust
km/h
Spd
kts
Gust
kts
17/11:30pm 26.3 24.3 18.2 61 5.1 N 26 41 14 22 1008.6 1008.5 0.4
17/11:19pm 25.9 23.7 18.6 64 4.6 N 28 46 15 25 1008.7 1008.6 0.4
17/11:00pm 25.4 23.1 19.3 69 3.9 NNE 30 39 16 21 1009.3 1009.2 0.4
17/10:30pm 24.4 24.2 21.3 83 2.0 ENE 24 32 13 17 1010.2 1010.1 0.4
17/10:00pm 24.1 24.0 20.8 82 2.2 ENE 22 30 12 16 1011.1 1011.0 0.4
17/09:30pm 22.5 22.7 20.2 87 1.5 SE 19 32 10 17 1011.3 1011.2 0.4
17/09:07pm 23.0 24.0 21.1 89 1.2 S 17 35 9 19 1011.4 1011.3 0.4
17/09:00pm 23.0 23.8 21.3 90 1.1 SSE 19 32 10 17 1010.9 1010.8 0.4
17/08:54pm 23.1 23.7 21.4 90 1.1 S 20 37 11 20 1011.1 1011.0 0.4
17/08:40pm 24.4 22.6 21.1 82 2.2 SW 32 50 17 27 1010.6 1010.5 0.0
17/08:30pm 26.2 26.8 22.1 78 2.7 W 22 44 12 24 1010.3 1010.2 0.0
17/08:27pm 26.9 29.1 24.2 85 1.9 NW 20 32 11 17 1009.7 1009.6 0.0
17/08:00pm 26.7 28.1 24.2 86 1.7 N 24 37 13 20 1007.3 1007.2 0.0
17/07:30pm 26.7 28.4 24.0 85 1.9 N 22 32 12 17 1007.4 1007.3 0.0
17/07:00pm 26.7 29.1 24.2 86 1.7 NNE 19 26 10 14 1007.3 1007.2 0.0
17/06:30pm 26.7 28.4 24.0 85 1.9 N 22 33 12 18 1007.0 1006.9 0.0
17/06:00pm 27.0 29.4 24.3 85 1.9 N 19 28 10 15 1006.4 1006.3 0.0
17/05:30pm 27.3 29.0 24.0 82 2.3 N 22 33 12 18 1005.7 1005.6 0.0
17/05:00pm 28.4 29.8 24.2 78 2.9 N 24 37 13 20 1005.5 1005.4 0.0
17/04:30pm 28.1 29.1 23.5 76 3.2 N 24 33 13 18 1005.4 1005.3 0.0
17/04:00pm 28.7 29.6 24.0 76 3.3 N 26 39 14 21 1005.1 1005.0 0.0
17/03:30pm 28.9 29.4 24.0 75 3.4 N 28 39 15 21 1005.1 1005.0 0.0
17/03:00pm 29.2 29.7 23.9 73 3.7 N 28 35 15 19 1005.3 1005.2 0.0
17/02:30pm 28.9 30.0 23.6 73 3.6 N 24 35 13 19 1005.7 1005.6 0.0
17/02:00pm 29.4 30.2 23.8 72 3.9 N 26 35 14 19 1006.1 1006.0 0.0
17/01:30pm 29.2 29.8 23.4 71 4.0 N 26 35 14 19 1006.4 1006.3 0.0
17/01:00pm 29.7 31.2 24.3 73 3.8 N 24 37 13 20 1006.6 1006.5 0.0
17/12:30pm 29.7 30.6 23.9 71 4.0 N 26 35 14 19 1007.0 1006.9 0.0
17/12:00pm 29.8 30.3 24.0 71 4.0 N 28 39 15 21 1007.2 1007.1 0.0
17/11:30am 29.5 29.5 23.0 68 4.4 NNW 28 39 15 21 1007.5 1007.4 0.0
17/11:00am 29.6 30.2 23.5 69 4.2 NNW 26 33 14 18 1007.9 1007.8 0.0
17/10:30am 29.5 30.8 23.4 69 4.2 NNW 22 30 12 16 1007.9 1007.8 0.0
17/10:00am 29.0 29.9 23.4 72 3.9 NNW 24 33 13 18 1007.8 1007.7 0.0
17/09:30am 28.7 29.5 23.8 75 3.4 NNW 26 32 14 17 1007.9 1007.8 0.0

Other Formats:

Comma delimited format used in spreadsheet applications
http://www.bom.gov.au/fwo/IDQ60801/IDQ60801.95565.axf

JavaScript Object Notation format (JSON) in row-major order
http://www.bom.gov.au/fwo/IDQ60801/IDQ60801.95565.json